LGAL

Details ICAO LGAL (AXD)
Name Alexandroupolis Dimokritos
Region Greece
Timezone Europe/Athens (UTC+3.0)
Plans Departing 184
Arriving 205
Stats Elevation 23 ft / 7 m (AMSL)
Location 40.855800° 25.956100°
Runways 1
Magnetic Variation 5.426° E
Sunrise 2021-07-25 03:06:59 UTC / 2021-07-25 06:06:59 Local
Sunset 2021-07-25 17:40:40 UTC / 2021-07-25 20:40:40 Local
Advertisement - Login to hide

Runways

ID Width Length Bearing (true/mag) Surface Threshold Overrun Markings Lighting
07 148 ft / 45 m 8,540 ft / 2,603 m 72.84° / 67.42° ASPHALT 0 ft / 0 m 0 ft / 0 m APP CENTERLINE EDGE THRESHOLD MALSF
25 148 ft / 45 m 8,540 ft / 2,603 m 252.86° / 247.43° ASPHALT 0 ft / 0 m 0 ft / 0 m APP CENTERLINE EDGE THRESHOLD MALSF

Map

Weather


0- 5 10 15 20 25 30 35+ Temperature / °C

Clouds and Precipitation
Forecast for 2021-07-25 18:00 UTC. Updated 6 hours ago

Ground ~20,000 ft ~40,000 ft Winds

METAR

LGAL 251950Z 01004KT CAVOK 24/14 Q1016

TAF

Not found

Frequencies

Tower 123.80 MHz ALEXANDROUPOLIS Tower
Approach 122.10 MHz ALEXANDROUPOLIS Approach
Warning: Do not use this data for real-world aviation or navigation. No guarantee of current accuracy is given.